sensor_id;sensor_type;location;lat;lon;timestamp;pressure;altitude;pressure_sealevel;temperature;humidity
74336;BME280;62755;-33.398;-70.572;2023-09-19T00:00:59;93209.31;;;13.34;65.35
74336;BME280;62755;-33.398;-70.572;2023-09-19T00:03:33;93207.28;;;13.38;64.90
74336;BME280;62755;-33.398;-70.572;2023-09-19T00:06:04;93222.25;;;13.39;65.27
74336;BME280;62755;-33.398;-70.572;2023-09-19T00:08:34;93231.97;;;13.49;65.23
74336;BME280;62755;-33.398;-70.572;2023-09-19T00:11:05;93233.69;;;13.43;64.76
74336;BME280;62755;-33.398;-70.572;2023-09-19T00:13:37;93218.56;;;13.33;65.53
74336;BME280;62755;-33.398;-70.572;2023-09-19T00:16:09;93236.25;;;13.34;65.29
74336;BME280;62755;-33.398;-70.572;2023-09-19T00:18:39;93230.19;;;13.30;65.20
74336;BME280;62755;-33.398;-70.572;2023-09-19T00:21:09;93225.97;;;13.29;65.47
74336;BME280;62755;-33.398;-70.572;2023-09-19T00:23:39;93236.41;;;13.27;65.55
74336;BME280;62755;-33.398;-70.572;2023-09-19T00:26:11;93207.00;;;13.04;65.96
74336;BME280;62755;-33.398;-70.572;2023-09-19T00:28:41;93230.69;;;13.25;65.79
74336;BME280;62755;-33.398;-70.572;2023-09-19T00:31:10;93238.03;;;13.25;65.87
74336;BME280;62755;-33.398;-70.572;2023-09-19T00:33:40;93233.38;;;13.25;65.45
74336;BME280;62755;-33.398;-70.572;2023-09-19T00:36:09;93221.69;;;13.15;65.96
74336;BME280;62755;-33.398;-70.572;2023-09-19T00:38:39;93212.03;;;12.86;66.35
74336;BME280;62755;-33.398;-70.572;2023-09-19T00:41:10;93209.34;;;13.02;66.61
74336;BME280;62755;-33.398;-70.572;2023-09-19T00:43:39;93198.66;;;12.98;66.27
74336;BME280;62755;-33.398;-70.572;2023-09-19T00:46:09;93202.44;;;13.01;66.30
74336;BME280;62755;-33.398;-70.572;2023-09-19T00:48:41;93201.78;;;12.97;66.68
74336;BME280;62755;-33.398;-70.572;2023-09-19T00:51:12;93192.94;;;12.96;67.15
74336;BME280;62755;-33.398;-70.572;2023-09-19T00:53:46;93202.72;;;13.06;66.31
74336;BME280;62755;-33.398;-70.572;2023-09-19T00:56:17;93191.25;;;13.02;66.51
74336;BME280;62755;-33.398;-70.572;2023-09-19T00:58:48;93189.72;;;13.17;66.15
74336;BME280;62755;-33.398;-70.572;2023-09-19T01:01:18;93184.34;;;13.17;65.72
74336;BME280;62755;-33.398;-70.572;2023-09-19T01:03:47;93187.13;;;13.14;66.20
74336;BME280;62755;-33.398;-70.572;2023-09-19T01:06:17;93207.81;;;13.17;66.54
74336;BME280;62755;-33.398;-70.572;2023-09-19T01:08:47;93217.22;;;13.25;65.60
74336;BME280;62755;-33.398;-70.572;2023-09-19T01:11:21;93200.09;;;13.03;66.21
74336;BME280;62755;-33.398;-70.572;2023-09-19T01:14:00;93189.47;;;12.96;67.00
74336;BME280;62755;-33.398;-70.572;2023-09-19T01:16:44;93176.03;;;12.96;67.35
74336;BME280;62755;-33.398;-70.572;2023-09-19T01:19:38;93185.97;;;12.99;67.09
74336;BME280;62755;-33.398;-70.572;2023-09-19T01:22:16;93187.13;;;12.98;67.14
74336;BME280;62755;-33.398;-70.572;2023-09-19T01:25:22;93198.91;;;13.20;66.72
74336;BME280;62755;-33.398;-70.572;2023-09-19T01:30:59;93216.56;;;13.21;66.29
74336;BME280;62755;-33.398;-70.572;2023-09-19T01:33:55;93194.78;;;12.99;66.53
74336;BME280;62755;-33.398;-70.572;2023-09-19T01:36:33;93211.94;;;12.89;66.60
74336;BME280;62755;-33.398;-70.572;2023-09-19T01:39:04;93222.78;;;12.70;66.42
74336;BME280;62755;-33.398;-70.572;2023-09-19T01:41:47;93232.81;;;12.85;66.46
74336;BME280;62755;-33.398;-70.572;2023-09-19T01:44:28;93234.56;;;12.76;66.46
74336;BME280;62755;-33.398;-70.572;2023-09-19T01:47:07;93219.94;;;12.77;66.07
74336;BME280;62755;-33.398;-70.572;2023-09-19T01:49:44;93230.97;;;12.82;65.66
74336;BME280;62755;-33.398;-70.572;2023-09-19T01:52:20;93232.56;;;12.96;65.25
74336;BME280;62755;-33.398;-70.572;2023-09-19T01:54:52;93238.59;;;13.00;64.61
74336;BME280;62755;-33.398;-70.572;2023-09-19T01:57:28;93249.72;;;13.02;64.55
74336;BME280;62755;-33.398;-70.572;2023-09-19T02:00:02;93241.63;;;13.02;64.61
74336;BME280;62755;-33.398;-70.572;2023-09-19T02:02:38;93204.81;;;12.83;64.85
74336;BME280;62755;-33.398;-70.572;2023-09-19T02:05:09;93243.50;;;12.89;65.09
74336;BME280;62755;-33.398;-70.572;2023-09-19T02:07:41;93234.75;;;13.01;64.78
74336;BME280;62755;-33.398;-70.572;2023-09-19T02:10:10;93215.56;;;12.99;64.66
74336;BME280;62755;-33.398;-70.572;2023-09-19T02:12:40;93211.22;;;13.05;64.85
74336;BME280;62755;-33.398;-70.572;2023-09-19T02:15:09;93201.84;;;12.93;65.36
74336;BME280;62755;-33.398;-70.572;2023-09-19T02:17:41;93204.31;;;13.04;66.28
74336;BME280;62755;-33.398;-70.572;2023-09-19T02:20:11;93193.94;;;13.02;65.85
74336;BME280;62755;-33.398;-70.572;2023-09-19T02:22:42;93189.00;;;13.01;66.22
74336;BME280;62755;-33.398;-70.572;2023-09-19T02:25:11;93183.53;;;12.88;66.88
74336;BME280;62755;-33.398;-70.572;2023-09-19T02:27:40;93183.88;;;12.58;67.99
74336;BME280;62755;-33.398;-70.572;2023-09-19T02:30:11;93169.50;;;12.49;68.42
74336;BME280;62755;-33.398;-70.572;2023-09-19T02:32:44;93167.00;;;12.42;68.75
74336;BME280;62755;-33.398;-70.572;2023-09-19T02:35:14;93155.03;;;12.26;69.90
74336;BME280;62755;-33.398;-70.572;2023-09-19T02:37:43;93145.81;;;12.27;70.13
74336;BME280;62755;-33.398;-70.572;2023-09-19T02:40:13;93135.47;;;12.26;70.08
74336;BME280;62755;-33.398;-70.572;2023-09-19T02:42:47;93107.00;;;12.12;70.29
74336;BME280;62755;-33.398;-70.572;2023-09-19T02:45:17;93130.34;;;12.31;70.35
74336;BME280;62755;-33.398;-70.572;2023-09-19T02:47:49;93126.47;;;12.32;70.22
74336;BME280;62755;-33.398;-70.572;2023-09-19T02:50:18;93124.13;;;12.34;70.32
74336;BME280;62755;-33.398;-70.572;2023-09-19T02:52:48;93128.50;;;12.45;70.06
74336;BME280;62755;-33.398;-70.572;2023-09-19T02:55:19;93140.34;;;12.63;69.59
74336;BME280;62755;-33.398;-70.572;2023-09-19T02:57:49;93155.53;;;12.70;69.38
74336;BME280;62755;-33.398;-70.572;2023-09-19T03:00:20;93145.72;;;12.63;69.47
74336;BME280;62755;-33.398;-70.572;2023-09-19T03:02:53;93148.84;;;12.62;69.97
74336;BME280;62755;-33.398;-70.572;2023-09-19T03:05:23;93133.63;;;12.55;69.92
74336;BME280;62755;-33.398;-70.572;2023-09-19T03:07:53;93157.72;;;12.75;69.62
74336;BME280;62755;-33.398;-70.572;2023-09-19T03:10:23;93166.47;;;12.79;69.50
74336;BME280;62755;-33.398;-70.572;2023-09-19T03:12:52;93176.66;;;12.71;69.51
74336;BME280;62755;-33.398;-70.572;2023-09-19T03:15:22;93193.03;;;12.77;68.90
74336;BME280;62755;-33.398;-70.572;2023-09-19T03:17:53;93188.00;;;12.63;69.21
74336;BME280;62755;-33.398;-70.572;2023-09-19T03:20:23;93184.16;;;12.64;69.66
74336;BME280;62755;-33.398;-70.572;2023-09-19T03:22:52;93196.91;;;12.76;69.04
74336;BME280;62755;-33.398;-70.572;2023-09-19T03:25:22;93202.28;;;12.76;69.05
74336;BME280;62755;-33.398;-70.572;2023-09-19T03:27:51;93201.13;;;12.61;68.92
74336;BME280;62755;-33.398;-70.572;2023-09-19T03:30:21;93192.69;;;12.43;69.53
74336;BME280;62755;-33.398;-70.572;2023-09-19T03:32:52;93207.34;;;12.58;69.05
74336;BME280;62755;-33.398;-70.572;2023-09-19T03:35:22;93203.38;;;12.62;68.55
74336;BME280;62755;-33.398;-70.572;2023-09-19T03:37:51;93223.22;;;12.68;68.20
74336;BME280;62755;-33.398;-70.572;2023-09-19T03:40:21;93221.28;;;12.69;68.26
74336;BME280;62755;-33.398;-70.572;2023-09-19T03:42:50;93208.09;;;12.58;68.21
74336;BME280;62755;-33.398;-70.572;2023-09-19T03:45:20;93204.13;;;12.63;68.75
74336;BME280;62755;-33.398;-70.572;2023-09-19T03:47:49;93218.94;;;12.71;68.17
74336;BME280;62755;-33.398;-70.572;2023-09-19T03:50:21;93222.63;;;12.61;67.65
74336;BME280;62755;-33.398;-70.572;2023-09-19T03:52:50;93232.81;;;12.53;67.58
74336;BME280;62755;-33.398;-70.572;2023-09-19T03:55:19;93211.53;;;12.59;67.67
74336;BME280;62755;-33.398;-70.572;2023-09-19T03:57:49;93214.41;;;12.52;67.56
74336;BME280;62755;-33.398;-70.572;2023-09-19T04:00:19;93208.50;;;12.57;67.19
74336;BME280;62755;-33.398;-70.572;2023-09-19T04:02:52;93222.88;;;12.66;68.09
74336;BME280;62755;-33.398;-70.572;2023-09-19T04:05:25;93199.28;;;12.58;68.13
74336;BME280;62755;-33.398;-70.572;2023-09-19T04:07:54;93189.00;;;12.53;68.56
74336;BME280;62755;-33.398;-70.572;2023-09-19T04:10:24;93189.69;;;12.57;68.21
74336;BME280;62755;-33.398;-70.572;2023-09-19T04:12:53;93204.81;;;12.67;68.08
74336;BME280;62755;-33.398;-70.572;2023-09-19T04:15:23;93206.16;;;12.75;68.06
74336;BME280;62755;-33.398;-70.572;2023-09-19T04:17:53;93190.84;;;12.72;68.00
74336;BME280;62755;-33.398;-70.572;2023-09-19T04:20:24;93190.16;;;12.68;67.98
74336;BME280;62755;-33.398;-70.572;2023-09-19T04:22:53;93173.28;;;12.51;68.52
74336;BME280;62755;-33.398;-70.572;2023-09-19T04:25:23;93189.69;;;12.57;68.89
74336;BME280;62755;-33.398;-70.572;2023-09-19T04:27:54;93195.56;;;12.68;68.94
74336;BME280;62755;-33.398;-70.572;2023-09-19T04:30:24;93185.97;;;12.51;70.15
74336;BME280;62755;-33.398;-70.572;2023-09-19T04:32:54;93191.53;;;12.44;69.84
74336;BME280;62755;-33.398;-70.572;2023-09-19T04:35:25;93172.97;;;12.49;69.83
74336;BME280;62755;-33.398;-70.572;2023-09-19T04:37:56;93166.47;;;12.63;69.02
74336;BME280;62755;-33.398;-70.572;2023-09-19T04:40:25;93157.25;;;12.64;68.62
74336;BME280;62755;-33.398;-70.572;2023-09-19T04:42:56;93159.41;;;12.69;69.06
74336;BME280;62755;-33.398;-70.572;2023-09-19T04:45:27;93139.38;;;12.70;68.74
74336;BME280;62755;-33.398;-70.572;2023-09-19T04:47:57;93126.09;;;12.79;68.98
74336;BME280;62755;-33.398;-70.572;2023-09-19T04:50:28;93126.28;;;12.72;68.72
74336;BME280;62755;-33.398;-70.572;2023-09-19T04:52:57;93138.75;;;12.66;68.89
74336;BME280;62755;-33.398;-70.572;2023-09-19T04:55:27;93136.53;;;12.77;68.77
74336;BME280;62755;-33.398;-70.572;2023-09-19T04:57:57;93109.19;;;12.78;68.88
74336;BME280;62755;-33.398;-70.572;2023-09-19T05:00:26;93113.00;;;12.81;68.69
74336;BME280;62755;-33.398;-70.572;2023-09-19T05:02:57;93113.47;;;12.76;68.83
74336;BME280;62755;-33.398;-70.572;2023-09-19T05:05:28;93102.31;;;12.77;69.11
74336;BME280;62755;-33.398;-70.572;2023-09-19T05:07:58;93107.78;;;12.74;69.12
74336;BME280;62755;-33.398;-70.572;2023-09-19T05:10:27;93096.41;;;12.54;69.40
74336;BME280;62755;-33.398;-70.572;2023-09-19T05:12:57;93095.38;;;12.48;69.90
74336;BME280;62755;-33.398;-70.572;2023-09-19T05:15:26;93095.47;;;12.44;70.24
74336;BME280;62755;-33.398;-70.572;2023-09-19T05:17:55;93102.94;;;12.53;70.04
74336;BME280;62755;-33.398;-70.572;2023-09-19T05:20:25;93092.19;;;12.36;69.93
74336;BME280;62755;-33.398;-70.572;2023-09-19T05:23:02;93098.31;;;12.53;69.80
74336;BME280;62755;-33.398;-70.572;2023-09-19T05:25:35;93089.88;;;12.22;70.25
74336;BME280;62755;-33.398;-70.572;2023-09-19T05:28:06;93103.13;;;12.13;69.90
74336;BME280;62755;-33.398;-70.572;2023-09-19T05:30:36;93090.53;;;11.94;69.05
74336;BME280;62755;-33.398;-70.572;2023-09-19T05:33:05;93073.78;;;12.19;68.59
74336;BME280;62755;-33.398;-70.572;2023-09-19T05:35:35;93080.78;;;12.16;69.33
74336;BME280;62755;-33.398;-70.572;2023-09-19T05:38:08;93087.81;;;12.26;68.83
74336;BME280;62755;-33.398;-70.572;2023-09-19T05:40:40;93078.94;;;12.29;68.47
74336;BME280;62755;-33.398;-70.572;2023-09-19T05:43:09;93084.16;;;12.20;68.16
74336;BME280;62755;-33.398;-70.572;2023-09-19T05:45:39;93074.66;;;12.16;67.71
74336;BME280;62755;-33.398;-70.572;2023-09-19T05:48:09;93037.59;;;12.07;67.53
74336;BME280;62755;-33.398;-70.572;2023-09-19T05:50:40;93060.06;;;12.01;67.48
74336;BME280;62755;-33.398;-70.572;2023-09-19T05:53:11;93046.34;;;11.95;67.21
74336;BME280;62755;-33.398;-70.572;2023-09-19T05:55:41;93041.38;;;11.94;66.44
74336;BME280;62755;-33.398;-70.572;2023-09-19T05:58:11;93027.53;;;11.95;66.19
74336;BME280;62755;-33.398;-70.572;2023-09-19T06:00:41;93019.31;;;11.86;66.73
74336;BME280;62755;-33.398;-70.572;2023-09-19T06:03:11;93008.38;;;11.93;66.79
74336;BME280;62755;-33.398;-70.572;2023-09-19T06:05:41;92994.53;;;11.95;66.28
74336;BME280;62755;-33.398;-70.572;2023-09-19T06:08:12;93009.63;;;12.05;66.06
74336;BME280;62755;-33.398;-70.572;2023-09-19T06:10:41;93019.81;;;11.97;66.36
74336;BME280;62755;-33.398;-70.572;2023-09-19T06:13:11;93026.59;;;12.02;66.46
74336;BME280;62755;-33.398;-70.572;2023-09-19T06:15:40;93030.31;;;11.92;66.66
74336;BME280;62755;-33.398;-70.572;2023-09-19T06:18:12;93015.94;;;11.98;66.98
74336;BME280;62755;-33.398;-70.572;2023-09-19T06:20:46;92996.78;;;12.12;66.52
74336;BME280;62755;-33.398;-70.572;2023-09-19T06:23:20;92972.97;;;11.82;66.70
74336;BME280;62755;-33.398;-70.572;2023-09-19T06:25:51;93026.53;;;11.89;67.21
74336;BME280;62755;-33.398;-70.572;2023-09-19T06:28:21;93003.19;;;11.86;68.66
74336;BME280;62755;-33.398;-70.572;2023-09-19T06:30:52;93004.69;;;11.87;68.27
74336;BME280;62755;-33.398;-70.572;2023-09-19T06:33:22;92983.69;;;11.98;67.85
74336;BME280;62755;-33.398;-70.572;2023-09-19T06:35:51;92980.09;;;11.89;67.72
74336;BME280;62755;-33.398;-70.572;2023-09-19T06:38:27;92990.25;;;11.81;67.45
74336;BME280;62755;-33.398;-70.572;2023-09-19T06:40:57;92985.06;;;11.74;67.60
74336;BME280;62755;-33.398;-70.572;2023-09-19T06:43:28;92949.38;;;11.58;68.48
74336;BME280;62755;-33.398;-70.572;2023-09-19T06:45:57;92958.28;;;11.71;68.82
74336;BME280;62755;-33.398;-70.572;2023-09-19T06:48:27;92963.38;;;11.81;68.61
74336;BME280;62755;-33.398;-70.572;2023-09-19T06:50:57;92966.59;;;11.76;68.84
74336;BME280;62755;-33.398;-70.572;2023-09-19T06:53:31;92952.00;;;11.77;68.94
74336;BME280;62755;-33.398;-70.572;2023-09-19T06:56:01;92943.56;;;11.91;68.28
74336;BME280;62755;-33.398;-70.572;2023-09-19T06:58:31;92960.31;;;12.11;67.81
74336;BME280;62755;-33.398;-70.572;2023-09-19T07:01:00;92969.38;;;12.17;67.37
74336;BME280;62755;-33.398;-70.572;2023-09-19T07:03:30;92966.69;;;12.17;67.08
74336;BME280;62755;-33.398;-70.572;2023-09-19T07:06:00;92981.66;;;12.18;67.19
74336;BME280;62755;-33.398;-70.572;2023-09-19T07:08:33;92964.38;;;12.03;67.58
74336;BME280;62755;-33.398;-70.572;2023-09-19T07:11:02;92918.22;;;11.92;67.59
74336;BME280;62755;-33.398;-70.572;2023-09-19T07:13:33;92937.25;;;11.98;68.07
74336;BME280;62755;-33.398;-70.572;2023-09-19T07:16:02;92966.22;;;12.06;67.94
74336;BME280;62755;-33.398;-70.572;2023-09-19T07:18:32;92944.72;;;12.06;67.72
74336;BME280;62755;-33.398;-70.572;2023-09-19T07:21:01;92910.97;;;11.89;68.43
74336;BME280;62755;-33.398;-70.572;2023-09-19T07:23:33;92961.66;;;12.19;68.23
74336;BME280;62755;-33.398;-70.572;2023-09-19T07:26:03;92980.50;;;12.03;68.51
74336;BME280;62755;-33.398;-70.572;2023-09-19T07:28:32;92987.56;;;11.97;68.37
74336;BME280;62755;-33.398;-70.572;2023-09-19T07:31:03;92996.03;;;11.96;68.56
74336;BME280;62755;-33.398;-70.572;2023-09-19T07:33:36;92983.38;;;11.80;69.20
74336;BME280;62755;-33.398;-70.572;2023-09-19T07:36:10;92989.25;;;11.91;68.58
74336;BME280;62755;-33.398;-70.572;2023-09-19T07:38:42;92996.81;;;11.96;68.38
74336;BME280;62755;-33.398;-70.572;2023-09-19T07:41:11;92992.97;;;11.62;69.67
74336;BME280;62755;-33.398;-70.572;2023-09-19T07:43:41;93004.00;;;11.51;69.85
74336;BME280;62755;-33.398;-70.572;2023-09-19T07:46:11;93006.03;;;11.63;69.86
74336;BME280;62755;-33.398;-70.572;2023-09-19T07:48:40;93012.59;;;11.78;69.47
74336;BME280;62755;-33.398;-70.572;2023-09-19T07:51:14;92998.50;;;11.90;69.33
74336;BME280;62755;-33.398;-70.572;2023-09-19T07:53:46;92990.75;;;11.92;69.05
74336;BME280;62755;-33.398;-70.572;2023-09-19T07:56:16;92991.44;;;11.80;70.33
74336;BME280;62755;-33.398;-70.572;2023-09-19T07:58:47;92997.47;;;11.84;70.32
74336;BME280;62755;-33.398;-70.572;2023-09-19T08:01:16;93009.38;;;11.83;70.52
74336;BME280;62755;-33.398;-70.572;2023-09-19T08:03:46;93015.09;;;11.85;70.94
74336;BME280;62755;-33.398;-70.572;2023-09-19T08:06:16;93012.25;;;11.76;71.69
74336;BME280;62755;-33.398;-70.572;2023-09-19T08:08:50;93016.28;;;11.84;71.82
74336;BME280;62755;-33.398;-70.572;2023-09-19T08:11:20;93017.44;;;11.83;71.73
74336;BME280;62755;-33.398;-70.572;2023-09-19T08:13:51;93021.66;;;11.84;71.73
74336;BME280;62755;-33.398;-70.572;2023-09-19T08:16:20;93026.78;;;11.95;71.55
74336;BME280;62755;-33.398;-70.572;2023-09-19T08:18:51;93031.47;;;12.07;70.86
74336;BME280;62755;-33.398;-70.572;2023-09-19T08:21:21;93005.88;;;11.86;70.72
74336;BME280;62755;-33.398;-70.572;2023-09-19T08:23:53;93035.53;;;11.99;70.69
74336;BME280;62755;-33.398;-70.572;2023-09-19T08:26:22;93023.69;;;11.96;70.85
74336;BME280;62755;-33.398;-70.572;2023-09-19T08:28:52;93033.41;;;11.90;71.31
74336;BME280;62755;-33.398;-70.572;2023-09-19T08:31:22;93031.50;;;11.91;71.03
74336;BME280;62755;-33.398;-70.572;2023-09-19T08:33:52;93023.00;;;11.92;70.95
74336;BME280;62755;-33.398;-70.572;2023-09-19T08:36:22;93011.91;;;12.06;70.21
74336;BME280;62755;-33.398;-70.572;2023-09-19T08:38:53;93007.22;;;12.10;70.15
74336;BME280;62755;-33.398;-70.572;2023-09-19T08:41:23;93004.19;;;12.08;70.76
74336;BME280;62755;-33.398;-70.572;2023-09-19T08:43:53;92990.56;;;11.99;70.53
74336;BME280;62755;-33.398;-70.572;2023-09-19T08:46:25;92980.16;;;12.01;70.76
74336;BME280;62755;-33.398;-70.572;2023-09-19T08:49:03;92967.38;;;12.05;70.52
74336;BME280;62755;-33.398;-70.572;2023-09-19T08:51:41;92943.81;;;11.97;70.71
74336;BME280;62755;-33.398;-70.572;2023-09-19T08:54:21;92946.91;;;11.95;70.75
74336;BME280;62755;-33.398;-70.572;2023-09-19T08:56:54;92951.13;;;11.96;70.85
74336;BME280;62755;-33.398;-70.572;2023-09-19T08:59:24;92946.19;;;11.95;70.60
74336;BME280;62755;-33.398;-70.572;2023-09-19T09:01:55;92929.09;;;12.01;70.43
74336;BME280;62755;-33.398;-70.572;2023-09-19T09:04:25;92943.44;;;12.11;70.13
74336;BME280;62755;-33.398;-70.572;2023-09-19T09:06:55;92948.75;;;12.14;70.37
74336;BME280;62755;-33.398;-70.572;2023-09-19T09:09:28;92954.94;;;12.11;70.42
74336;BME280;62755;-33.398;-70.572;2023-09-19T09:11:59;92991.56;;;12.21;70.23
74336;BME280;62755;-33.398;-70.572;2023-09-19T09:14:29;93008.88;;;12.20;70.07
74336;BME280;62755;-33.398;-70.572;2023-09-19T09:16:59;92992.13;;;12.29;69.35
74336;BME280;62755;-33.398;-70.572;2023-09-19T09:19:30;92985.16;;;12.31;68.93
74336;BME280;62755;-33.398;-70.572;2023-09-19T09:22:07;93000.25;;;12.42;68.83
74336;BME280;62755;-33.398;-70.572;2023-09-19T09:24:52;92985.44;;;12.50;68.22
74336;BME280;62755;-33.398;-70.572;2023-09-19T09:27:25;92991.50;;;12.54;68.77
74336;BME280;62755;-33.398;-70.572;2023-09-19T09:29:54;92987.31;;;12.36;69.47
74336;BME280;62755;-33.398;-70.572;2023-09-19T09:32:24;92998.16;;;12.04;70.53
74336;BME280;62755;-33.398;-70.572;2023-09-19T09:34:57;92993.03;;;11.94;70.67
74336;BME280;62755;-33.398;-70.572;2023-09-19T09:37:27;92990.75;;;11.92;70.44
74336;BME280;62755;-33.398;-70.572;2023-09-19T09:39:59;92963.19;;;11.56;70.84
74336;BME280;62755;-33.398;-70.572;2023-09-19T09:42:46;92989.00;;;11.70;71.19
74336;BME280;62755;-33.398;-70.572;2023-09-19T09:45:21;92970.19;;;11.54;70.16
74336;BME280;62755;-33.398;-70.572;2023-09-19T09:47:56;92984.19;;;11.61;70.54
74336;BME280;62755;-33.398;-70.572;2023-09-19T09:50:28;93005.50;;;11.52;70.45
74336;BME280;62755;-33.398;-70.572;2023-09-19T09:53:22;93022.50;;;11.29;70.47
74336;BME280;62755;-33.398;-70.572;2023-09-19T09:56:01;93026.25;;;11.16;71.00
74336;BME280;62755;-33.398;-70.572;2023-09-19T09:58:33;93038.63;;;11.10;71.36
74336;BME280;62755;-33.398;-70.572;2023-09-19T10:01:04;93043.41;;;11.02;70.97
74336;BME280;62755;-33.398;-70.572;2023-09-19T10:03:42;93069.47;;;11.02;70.96
74336;BME280;62755;-33.398;-70.572;2023-09-19T10:06:16;93067.81;;;11.08;71.08
74336;BME280;62755;-33.398;-70.572;2023-09-19T10:09:01;93051.75;;;11.24;70.16
74336;BME280;62755;-33.398;-70.572;2023-09-19T10:11:46;93057.06;;;11.08;70.05
74336;BME280;62755;-33.398;-70.572;2023-09-19T10:14:27;93055.34;;;11.17;70.07
74336;BME280;62755;-33.398;-70.572;2023-09-19T10:16:59;93062.97;;;11.19;70.22
74336;BME280;62755;-33.398;-70.572;2023-09-19T10:19:36;93066.84;;;11.18;70.06
74336;BME280;62755;-33.398;-70.572;2023-09-19T10:22:08;93074.25;;;11.30;69.53
74336;BME280;62755;-33.398;-70.572;2023-09-19T10:24:39;93079.41;;;11.40;69.38
74336;BME280;62755;-33.398;-70.572;2023-09-19T10:27:11;93052.47;;;11.44;69.44
74336;BME280;62755;-33.398;-70.572;2023-09-19T10:29:45;93063.84;;;11.52;69.07
74336;BME280;62755;-33.398;-70.572;2023-09-19T10:32:17;93072.91;;;11.58;69.04
74336;BME280;62755;-33.398;-70.572;2023-09-19T10:34:47;93081.34;;;11.56;68.58
74336;BME280;62755;-33.398;-70.572;2023-09-19T10:37:18;93073.81;;;11.51;68.99
74336;BME280;62755;-33.398;-70.572;2023-09-19T10:39:53;93050.78;;;11.50;68.68
74336;BME280;62755;-33.398;-70.572;2023-09-19T10:42:27;93040.53;;;11.29;69.61
74336;BME280;62755;-33.398;-70.572;2023-09-19T10:44:58;93046.56;;;11.33;69.54
74336;BME280;62755;-33.398;-70.572;2023-09-19T10:47:31;93025.75;;;11.21;70.21
74336;BME280;62755;-33.398;-70.572;2023-09-19T10:50:02;93024.75;;;11.31;70.76
74336;BME280;62755;-33.398;-70.572;2023-09-19T10:52:33;93019.91;;;11.26;71.36
74336;BME280;62755;-33.398;-70.572;2023-09-19T10:55:03;93014.44;;;11.29;71.24
74336;BME280;62755;-33.398;-70.572;2023-09-19T10:57:35;93009.16;;;11.26;71.46
74336;BME280;62755;-33.398;-70.572;2023-09-19T11:00:06;92991.72;;;11.34;71.03
74336;BME280;62755;-33.398;-70.572;2023-09-19T11:03:17;92964.47;;;11.35;70.76
74336;BME280;62755;-33.398;-70.572;2023-09-19T11:06:07;92955.66;;;11.51;69.63
74336;BME280;62755;-33.398;-70.572;2023-09-19T11:08:57;92956.09;;;11.66;69.24
74336;BME280;62755;-33.398;-70.572;2023-09-19T11:11:43;92924.94;;;11.52;68.34
74336;BME280;62755;-33.398;-70.572;2023-09-19T11:14:41;92962.56;;;11.84;67.28
74336;BME280;62755;-33.398;-70.572;2023-09-19T11:17:41;92956.16;;;11.94;66.42
74336;BME280;62755;-33.398;-70.572;2023-09-19T11:20:20;92953.94;;;12.05;65.27
74336;BME280;62755;-33.398;-70.572;2023-09-19T11:23:20;92950.44;;;12.08;63.96
74336;BME280;62755;-33.398;-70.572;2023-09-19T11:25:53;92962.13;;;12.30;63.37
74336;BME280;62755;-33.398;-70.572;2023-09-19T11:28:32;92960.69;;;12.42;62.45
74336;BME280;62755;-33.398;-70.572;2023-09-19T11:34:46;92961.88;;;11.80;67.41
74336;BME280;62755;-33.398;-70.572;2023-09-19T11:40:46;92981.31;;;11.20;70.37
74336;BME280;62755;-33.398;-70.572;2023-09-19T11:43:31;92976.94;;;11.26;70.49
74336;BME280;62755;-33.398;-70.572;2023-09-19T11:46:06;92989.94;;;11.27;70.47
74336;BME280;62755;-33.398;-70.572;2023-09-19T11:48:38;92998.94;;;11.37;69.86
74336;BME280;62755;-33.398;-70.572;2023-09-19T11:51:17;92986.03;;;11.32;70.17
74336;BME280;62755;-33.398;-70.572;2023-09-19T11:53:54;92986.69;;;11.36;70.14
74336;BME280;62755;-33.398;-70.572;2023-09-19T11:56:24;92977.13;;;11.35;70.30
74336;BME280;62755;-33.398;-70.572;2023-09-19T11:58:55;92959.91;;;11.32;70.56
74336;BME280;62755;-33.398;-70.572;2023-09-19T12:01:29;92970.34;;;11.46;69.89
74336;BME280;62755;-33.398;-70.572;2023-09-19T12:04:00;92975.47;;;11.57;69.79
74336;BME280;62755;-33.398;-70.572;2023-09-19T12:06:33;92939.88;;;11.37;70.08
74336;BME280;62755;-33.398;-70.572;2023-09-19T12:09:05;92973.47;;;11.77;69.30
74336;BME280;62755;-33.398;-70.572;2023-09-19T12:11:42;92943.25;;;11.57;68.97
74336;BME280;62755;-33.398;-70.572;2023-09-19T12:14:22;92985.72;;;11.78;69.36
74336;BME280;62755;-33.398;-70.572;2023-09-19T12:16:54;92991.34;;;12.00;68.47
74336;BME280;62755;-33.398;-70.572;2023-09-19T12:19:24;92983.63;;;12.02;68.25
74336;BME280;62755;-33.398;-70.572;2023-09-19T12:22:02;92977.00;;;11.90;69.04
74336;BME280;62755;-33.398;-70.572;2023-09-19T12:24:33;92975.31;;;11.96;68.80
74336;BME280;62755;-33.398;-70.572;2023-09-19T12:27:05;92958.00;;;11.97;68.21
74336;BME280;62755;-33.398;-70.572;2023-09-19T12:29:46;92971.06;;;12.11;67.88
74336;BME280;62755;-33.398;-70.572;2023-09-19T12:32:16;92987.97;;;12.12;68.28
74336;BME280;62755;-33.398;-70.572;2023-09-19T12:34:53;92974.97;;;12.10;67.77
74336;BME280;62755;-33.398;-70.572;2023-09-19T12:37:25;92986.19;;;12.05;68.80
74336;BME280;62755;-33.398;-70.572;2023-09-19T12:40:04;92963.59;;;12.19;68.01
74336;BME280;62755;-33.398;-70.572;2023-09-19T12:42:43;92957.59;;;12.27;68.05
74336;BME280;62755;-33.398;-70.572;2023-09-19T12:45:13;92962.19;;;12.14;67.88
74336;BME280;62755;-33.398;-70.572;2023-09-19T12:51:03;92956.09;;;12.26;67.75
74336;BME280;62755;-33.398;-70.572;2023-09-19T12:53:37;92945.66;;;12.28;67.92
74336;BME280;62755;-33.398;-70.572;2023-09-19T12:56:09;92941.69;;;12.20;68.40
74336;BME280;62755;-33.398;-70.572;2023-09-19T12:58:52;92942.13;;;12.31;68.29
74336;BME280;62755;-33.398;-70.572;2023-09-19T13:01:23;92922.22;;;12.29;68.49
74336;BME280;62755;-33.398;-70.572;2023-09-19T13:04:17;92918.50;;;12.39;67.90
74336;BME280;62755;-33.398;-70.572;2023-09-19T13:06:47;92889.78;;;12.07;68.47
74336;BME280;62755;-33.398;-70.572;2023-09-19T13:09:19;92903.84;;;12.27;68.43
74336;BME280;62755;-33.398;-70.572;2023-09-19T13:11:49;92901.84;;;12.15;68.48